createdAt,value
2023-04-21T00:00:17.463Z,1016.63
2023-04-21T00:01:17.538Z,1016.63
2023-04-21T00:02:17.418Z,1016.63
2023-04-21T00:03:17.599Z,1016.60
2023-04-21T00:04:17.447Z,1016.61
2023-04-21T00:05:17.428Z,1016.62
2023-04-21T00:06:17.259Z,1016.61
2023-04-21T00:07:17.304Z,1016.65
2023-04-21T00:08:17.201Z,1016.60
2023-04-21T00:09:17.366Z,1016.61
2023-04-21T00:10:17.137Z,1016.60
2023-04-21T00:11:17.116Z,1016.57
2023-04-21T00:12:17.074Z,1016.60
2023-04-21T00:13:17.106Z,1016.59
2023-04-21T00:14:17.000Z,1016.60
2023-04-21T00:15:16.978Z,1016.59
2023-04-21T00:16:17.010Z,1016.55
2023-04-21T00:17:16.902Z,1016.58
2023-04-21T00:18:16.864Z,1016.58
2023-04-21T00:19:17.127Z,1016.58
2023-04-21T00:20:16.807Z,1016.57
2023-04-21T00:21:16.773Z,1016.55
2023-04-21T00:22:16.732Z,1016.57
2023-04-21T00:23:16.697Z,1016.59
2023-04-21T00:24:16.677Z,1016.57
2023-04-21T00:25:16.706Z,1016.58
2023-04-21T00:26:16.608Z,1016.58
2023-04-21T00:27:16.563Z,1016.55
2023-04-21T00:28:16.527Z,1016.57
2023-04-21T00:29:16.772Z,1016.55
2023-04-21T00:30:16.466Z,1016.54
2023-04-21T00:31:16.522Z,1016.55
2023-04-21T00:32:16.417Z,1016.53
2023-04-21T00:33:16.373Z,1016.53
2023-04-21T00:34:16.334Z,1016.52
2023-04-21T00:35:16.295Z,1016.52
2023-04-21T00:36:16.339Z,1016.51
2023-04-21T00:37:16.232Z,1016.50
2023-04-21T00:38:16.190Z,1016.52
2023-04-21T00:39:16.177Z,1016.52
2023-04-21T00:40:16.146Z,1016.52
2023-04-21T00:41:16.152Z,1016.54
2023-04-21T00:42:16.063Z,1016.53
2023-04-21T00:43:16.042Z,1016.54
2023-04-21T00:44:15.999Z,1016.55
2023-04-21T00:45:15.964Z,1016.54
2023-04-21T00:46:15.963Z,1016.55
2023-04-21T00:47:15.950Z,1016.56
2023-04-21T00:48:15.871Z,1016.44
2023-04-21T00:49:15.912Z,1016.49
2023-04-21T00:50:15.794Z,1016.52
2023-04-21T00:51:15.768Z,1016.48
2023-04-21T00:52:15.792Z,1016.48
2023-04-21T00:53:15.691Z,1016.48
2023-04-21T00:54:15.660Z,1016.48
2023-04-21T00:55:15.681Z,1016.44
2023-04-21T00:56:15.593Z,1016.40
2023-04-21T00:57:15.572Z,1016.39
2023-04-21T00:58:15.583Z,1016.41
2023-04-21T00:59:15.501Z,1016.42
2023-04-21T01:00:15.481Z,1016.44
2023-04-21T01:01:15.442Z,1016.44
2023-04-21T01:02:15.432Z,1016.43
2023-04-21T01:03:15.588Z,1016.40
2023-04-21T01:04:15.350Z,1016.43
2023-04-21T01:05:15.314Z,1016.41
2023-04-21T01:06:15.314Z,1016.42
2023-04-21T01:07:15.234Z,1016.40
2023-04-21T01:08:15.252Z,1016.42
2023-04-21T01:09:15.169Z,1016.42
2023-04-21T01:10:15.136Z,1016.40
2023-04-21T01:11:15.092Z,1016.42
2023-04-21T01:12:15.056Z,1016.41
2023-04-21T01:13:15.037Z,1016.41
2023-04-21T01:14:15.072Z,1016.42
2023-04-21T01:15:14.968Z,1016.38
2023-04-21T01:16:14.950Z,1016.39
2023-04-21T01:17:14.905Z,1016.39
2023-04-21T01:18:14.958Z,1016.36
2023-04-21T01:19:14.838Z,1016.32
2023-04-21T01:20:14.866Z,1016.40
2023-04-21T01:21:14.757Z,1016.43
2023-04-21T01:22:14.736Z,1016.34
2023-04-21T01:23:14.696Z,1016.41
2023-04-21T01:24:14.662Z,1016.36
2023-04-21T01:25:14.693Z,1016.33
2023-04-21T01:26:14.623Z,1016.36
2023-04-21T01:27:14.576Z,1016.33
2023-04-21T01:28:14.537Z,1016.32
2023-04-21T01:29:14.500Z,1016.30
2023-04-21T01:30:14.461Z,1016.28
2023-04-21T01:31:14.497Z,1016.30
2023-04-21T01:32:14.415Z,1016.28
2023-04-21T01:33:14.405Z,1016.28
2023-04-21T01:34:14.332Z,1016.27
2023-04-21T01:35:14.290Z,1016.27
2023-04-21T01:36:14.276Z,1016.26
2023-04-21T01:37:14.300Z,1016.28
2023-04-21T01:38:14.207Z,1016.26
2023-04-21T01:39:14.193Z,1016.26
2023-04-21T01:40:14.171Z,1016.27
2023-04-21T01:41:14.089Z,1016.24
2023-04-21T01:42:14.079Z,1016.27
2023-04-21T01:43:14.084Z,1016.23
2023-04-21T01:44:13.998Z,1016.24
2023-04-21T01:45:13.984Z,1016.22
2023-04-21T01:46:13.976Z,1016.26
2023-04-21T01:47:13.898Z,1016.23
2023-04-21T01:48:14.000Z,1016.19
2023-04-21T01:49:13.836Z,1016.18
2023-04-21T01:50:13.812Z,1016.19
2023-04-21T01:51:13.756Z,1016.18
2023-04-21T01:52:13.729Z,1016.23
2023-04-21T01:53:13.748Z,1016.21
2023-04-21T01:54:13.670Z,1016.20
2023-04-21T01:55:13.647Z,1016.18
2023-04-21T01:56:13.605Z,1016.21
2023-04-21T01:57:13.655Z,1016.22
2023-04-21T01:58:13.523Z,1016.19
2023-04-21T01:59:13.552Z,1016.16
2023-04-21T02:00:13.467Z,1016.23
2023-04-21T02:01:13.446Z,1016.15
2023-04-21T02:02:13.499Z,1016.18
2023-04-21T02:03:13.475Z,1016.15
2023-04-21T02:04:13.415Z,1016.17
2023-04-21T02:05:13.357Z,1016.17
2023-04-21T02:06:13.276Z,1016.16
2023-04-21T02:07:13.301Z,1016.21
2023-04-21T02:08:13.207Z,1016.17
2023-04-21T02:09:13.156Z,1016.18
2023-04-21T02:10:13.151Z,1016.16
2023-04-21T02:11:13.160Z,1016.13
2023-04-21T02:12:13.069Z,1016.17
2023-04-21T02:13:13.035Z,1016.15
2023-04-21T02:14:12.998Z,1016.15
2023-04-21T02:15:12.966Z,1016.14
2023-04-21T02:16:14.265Z,1016.13
2023-04-21T02:17:12.963Z,1016.16
2023-04-21T02:18:12.950Z,1016.17
2023-04-21T02:19:12.836Z,1016.11
2023-04-21T02:20:12.797Z,1016.10
2023-04-21T02:21:12.763Z,1016.12
2023-04-21T02:22:12.741Z,1016.17
2023-04-21T02:23:12.764Z,1016.16
2023-04-21T02:24:12.658Z,1016.14
2023-04-21T02:25:12.636Z,1016.09
2023-04-21T02:26:12.585Z,1016.13
2023-04-21T02:27:12.550Z,1016.10
2023-04-21T02:28:12.534Z,1016.05
2023-04-21T02:29:12.547Z,1016.06
2023-04-21T02:30:12.464Z,1016.08
2023-04-21T02:31:12.471Z,1016.06
2023-04-21T02:32:24.901Z,1016.05
2023-04-21T02:33:12.399Z,1016.08
2023-04-21T02:34:12.318Z,1016.05
2023-04-21T02:35:12.355Z,1016.07
2023-04-21T02:36:12.257Z,1016.07
2023-04-21T02:37:12.237Z,1016.07
2023-04-21T02:38:12.187Z,1016.09
2023-04-21T02:39:12.165Z,1016.05
2023-04-21T02:40:12.121Z,1016.05
2023-04-21T02:41:12.128Z,1016.01
2023-04-21T02:42:12.046Z,1016.03
2023-04-21T02:43:12.022Z,1016.04
2023-04-21T02:44:12.018Z,1016.01
2023-04-21T02:45:11.959Z,1015.97
2023-04-21T02:46:12.000Z,1016.08
2023-04-21T02:47:11.888Z,1016.03
2023-04-21T02:48:12.063Z,1016.03
2023-04-21T02:49:11.817Z,1016.04
2023-04-21T02:50:11.778Z,1016.08
2023-04-21T02:51:11.763Z,1016.07
2023-04-21T02:52:11.714Z,1016.06
2023-04-21T02:53:11.743Z,1016.10
2023-04-21T02:54:11.652Z,1016.12
2023-04-21T02:55:11.659Z,1016.08
2023-04-21T02:56:11.572Z,1016.08
2023-04-21T02:57:11.562Z,1016.08
2023-04-21T02:58:11.503Z,1016.07
2023-04-21T02:59:11.529Z,1016.12
2023-04-21T03:00:11.434Z,1016.07
2023-04-21T03:01:11.428Z,1016.10
2023-04-21T03:02:11.494Z,1016.07
2023-04-21T03:03:11.399Z,1016.03
2023-04-21T03:04:11.437Z,1016.04
2023-04-21T03:05:11.333Z,1016.02
2023-04-21T03:06:11.248Z,1016.00
2023-04-21T03:07:11.204Z,1016.00
2023-04-21T03:08:11.183Z,1015.98
2023-04-21T03:09:11.221Z,1016.02
2023-04-21T03:10:11.097Z,1015.96
2023-04-21T03:11:11.084Z,1016.00
2023-04-21T03:12:11.035Z,1015.95
2023-04-21T03:13:11.009Z,1015.97
2023-04-21T03:14:10.961Z,1015.96
2023-04-21T03:15:11.005Z,1015.98
2023-04-21T03:16:10.936Z,1015.92
2023-04-21T03:17:10.874Z,1015.97
2023-04-21T03:18:10.878Z,1015.95
2023-04-21T03:19:10.799Z,1015.97
2023-04-21T03:20:10.775Z,1015.98
2023-04-21T03:21:10.815Z,1015.97
2023-04-21T03:22:10.711Z,1015.95
2023-04-21T03:23:10.664Z,1015.95
2023-04-21T03:24:10.624Z,1015.99
2023-04-21T03:25:10.602Z,1015.95
2023-04-21T03:26:10.568Z,1016.01
2023-04-21T03:27:11.138Z,1016.03
2023-04-21T03:28:10.504Z,1015.99
2023-04-21T03:29:10.456Z,1016.00
2023-04-21T03:30:10.936Z,1016.01
2023-04-21T03:31:10.403Z,1016.01
2023-04-21T03:32:10.371Z,1016.02
2023-04-21T03:33:10.455Z,1016.00
2023-04-21T03:34:10.297Z,1016.06
2023-04-21T03:35:10.253Z,1016.04
2023-04-21T03:36:10.227Z,1016.01
2023-04-21T03:37:10.191Z,1016.08
2023-04-21T03:38:10.181Z,1016.06
2023-04-21T03:39:19.716Z,1016.05
2023-04-21T03:40:10.129Z,1016.04
2023-04-21T03:41:10.047Z,1016.08
2023-04-21T03:42:10.023Z,1016.07
2023-04-21T03:43:10.003Z,1016.04
2023-04-21T03:44:09.963Z,1016.06
2023-04-21T03:45:10.010Z,1016.08
2023-04-21T03:46:09.906Z,1016.03
2023-04-21T03:47:09.850Z,1016.06
2023-04-21T03:48:09.918Z,1016.06
2023-04-21T03:49:09.780Z,1016.05
2023-04-21T03:50:09.742Z,1016.05
2023-04-21T03:51:09.772Z,1016.05
2023-04-21T03:52:09.680Z,1016.05
2023-04-21T03:53:09.642Z,1016.00
2023-04-21T03:54:09.608Z,1016.03
2023-04-21T03:55:09.577Z,1015.99
2023-04-21T03:56:09.538Z,1016.04
2023-04-21T03:57:09.563Z,1016.07
2023-04-21T03:58:09.502Z,1016.05
2023-04-21T03:59:09.442Z,1016.03
2023-04-21T04:00:09.405Z,1016.04
2023-04-21T04:01:09.374Z,1016.03
2023-04-21T04:02:09.361Z,1016.01
2023-04-21T04:03:09.435Z,1016.01
2023-04-21T04:04:09.553Z,1016.04
2023-04-21T04:05:09.277Z,1016.04
2023-04-21T04:06:09.200Z,1016.05
2023-04-21T04:07:09.162Z,1016.06
2023-04-21T04:08:09.120Z,1016.06
2023-04-21T04:09:09.149Z,1016.11
2023-04-21T04:10:09.125Z,1016.12
2023-04-21T04:11:09.025Z,1016.06
2023-04-21T04:12:10.598Z,1016.09
2023-04-21T04:13:08.956Z,1016.09
2023-04-21T04:14:08.924Z,1016.11
2023-04-21T04:15:08.947Z,1016.09
2023-04-21T04:16:08.940Z,1016.09
2023-04-21T04:17:08.821Z,1016.08
2023-04-21T04:18:08.814Z,1016.10
2023-04-21T04:19:08.769Z,1016.11
2023-04-21T04:20:08.766Z,1016.05
2023-04-21T04:21:08.698Z,1016.08
2023-04-21T04:22:08.647Z,1016.06
2023-04-21T04:23:08.623Z,1016.08
2023-04-21T04:24:08.601Z,1016.13
2023-04-21T04:25:08.554Z,1016.09
2023-04-21T04:26:08.576Z,1016.10
2023-04-21T04:27:08.533Z,1016.11
2023-04-21T04:28:08.447Z,1016.18
2023-04-21T04:29:08.508Z,1016.16
2023-04-21T04:30:08.380Z,1016.13
2023-04-21T04:31:08.370Z,1016.17
2023-04-21T04:32:08.374Z,1016.17
2023-04-21T04:33:08.294Z,1016.14
2023-04-21T04:34:08.234Z,1016.11
2023-04-21T04:35:08.230Z,1016.13
2023-04-21T04:36:08.178Z,1016.13
2023-04-21T04:37:08.168Z,1016.11
2023-04-21T04:38:08.170Z,1016.10
2023-04-21T04:39:09.460Z,1016.12
2023-04-21T04:40:08.042Z,1016.15
2023-04-21T04:41:08.000Z,1016.10
2023-04-21T04:42:07.976Z,1016.13
2023-04-21T04:43:07.925Z,1016.18
2023-04-21T04:44:07.970Z,1016.14
2023-04-21T04:45:07.917Z,1016.12
2023-04-21T04:46:07.899Z,1016.13
2023-04-21T04:47:07.895Z,1016.13
2023-04-21T04:48:07.776Z,1016.12
2023-04-21T04:49:07.744Z,1016.11
2023-04-21T04:50:07.753Z,1016.16
2023-04-21T04:51:07.703Z,1016.16
2023-04-21T04:52:07.630Z,1016.14
2023-04-21T04:53:07.589Z,1016.12
2023-04-21T04:54:07.569Z,1016.13
2023-04-21T04:55:07.584Z,1016.15
2023-04-21T04:56:07.491Z,1016.18
2023-04-21T04:57:07.477Z,1016.16
2023-04-21T04:58:07.436Z,1016.16
2023-04-21T04:59:07.402Z,1016.14
2023-04-21T05:00:07.369Z,1016.17
2023-04-21T05:01:07.404Z,1016.18
2023-04-21T05:02:07.378Z,1016.14
2023-04-21T05:03:07.408Z,1016.18
2023-04-21T05:04:07.379Z,1016.15
2023-04-21T05:05:07.328Z,1016.20
2023-04-21T05:06:07.165Z,1016.17
2023-04-21T05:07:07.189Z,1016.21
2023-04-21T05:08:07.096Z,1016.26
2023-04-21T05:09:07.081Z,1016.24
2023-04-21T05:10:07.033Z,1016.22
2023-04-21T05:11:07.041Z,1016.21
2023-04-21T05:12:06.964Z,1016.27
2023-04-21T05:13:06.942Z,1016.22
2023-04-21T05:14:06.901Z,1016.21
2023-04-21T05:15:06.860Z,1016.24
2023-04-21T05:16:06.875Z,1016.21
2023-04-21T05:17:06.831Z,1016.25
2023-04-21T05:18:06.800Z,1016.26
2023-04-21T05:19:06.736Z,1016.32
2023-04-21T05:20:06.704Z,1016.24
2023-04-21T05:21:06.655Z,1016.27
2023-04-21T05:22:06.703Z,1016.26
2023-04-21T05:23:06.599Z,1016.26
2023-04-21T05:24:06.568Z,1016.21
2023-04-21T05:25:06.565Z,1016.23
2023-04-21T05:26:06.507Z,1016.25
2023-04-21T05:27:06.466Z,1016.26
2023-04-21T05:28:06.481Z,1016.30
2023-04-21T05:29:06.387Z,1016.23
2023-04-21T05:30:06.362Z,1016.28
2023-04-21T05:31:06.354Z,1016.24
2023-04-21T05:32:06.325Z,1016.24
2023-04-21T05:33:06.329Z,1016.22
2023-04-21T05:34:06.316Z,1016.20
2023-04-21T05:35:06.201Z,1016.20
2023-04-21T05:36:06.173Z,1016.20
2023-04-21T05:37:06.135Z,1016.19
2023-04-21T05:38:06.099Z,1016.22
2023-04-21T05:39:06.063Z,1016.26
2023-04-21T05:40:06.116Z,1016.21
2023-04-21T05:41:06.006Z,1016.21
2023-04-21T05:42:05.961Z,1016.25
2023-04-21T05:43:05.949Z,1016.28
2023-04-21T05:44:05.923Z,1016.23
2023-04-21T05:45:05.883Z,1016.23
2023-04-21T05:46:05.969Z,1016.21
2023-04-21T05:47:05.792Z,1016.22
2023-04-21T05:48:05.812Z,1016.27
2023-04-21T05:49:05.757Z,1016.25
2023-04-21T05:50:05.714Z,1016.29
2023-04-21T05:51:05.660Z,1016.27
2023-04-21T05:52:05.692Z,1016.30
2023-04-21T05:53:05.602Z,1016.27
2023-04-21T05:54:05.579Z,1016.27
2023-04-21T05:55:05.526Z,1016.25
2023-04-21T05:56:05.510Z,1016.27
2023-04-21T05:57:05.456Z,1016.27
2023-04-21T05:58:05.547Z,1016.29
2023-04-21T05:59:05.412Z,1016.28
2023-04-21T06:00:05.360Z,1016.23
2023-04-21T06:01:05.337Z,1016.26
2023-04-21T06:02:05.341Z,1016.32
2023-04-21T06:03:05.408Z,1016.29
2023-04-21T06:04:05.511Z,1016.32
2023-04-21T06:05:05.313Z,1016.27
2023-04-21T06:06:05.161Z,1016.32
2023-04-21T06:07:05.146Z,1016.27
2023-04-21T06:08:05.102Z,1016.30
2023-04-21T06:09:05.065Z,1016.25
2023-04-21T06:10:05.104Z,1016.24
2023-04-21T06:11:04.990Z,1016.27
2023-04-21T06:12:04.963Z,1016.24
2023-04-21T06:13:04.929Z,1016.26
2023-04-21T06:14:04.894Z,1016.24
2023-04-21T06:15:04.869Z,1016.21
2023-04-21T06:16:04.906Z,1016.24
2023-04-21T06:17:04.810Z,1016.25
2023-04-21T06:18:04.823Z,1016.29
2023-04-21T06:19:04.735Z,1016.24
2023-04-21T06:20:04.705Z,1016.30
2023-04-21T06:21:04.680Z,1016.20
2023-04-21T06:22:04.708Z,1016.29
2023-04-21T06:23:04.606Z,1016.29
2023-04-21T06:24:04.593Z,1016.27
2023-04-21T06:25:04.541Z,1016.27
2023-04-21T06:26:04.518Z,1016.30
2023-04-21T06:27:04.483Z,1016.23
2023-04-21T06:28:04.505Z,1016.25
2023-04-21T06:29:04.413Z,1016.24
2023-04-21T06:30:04.386Z,1016.22
2023-04-21T06:31:06.956Z,1016.19
2023-04-21T06:32:04.446Z,1016.18
2023-04-21T06:33:04.425Z,1016.21
2023-04-21T06:34:04.253Z,1016.15
2023-04-21T06:35:04.220Z,1016.13
2023-04-21T06:36:04.190Z,1016.13
2023-04-21T06:37:04.165Z,1016.16
2023-04-21T06:38:05.169Z,1016.10
2023-04-21T06:39:04.088Z,1016.12
2023-04-21T06:40:04.057Z,1016.17
2023-04-21T06:41:04.019Z,1016.10
2023-04-21T06:42:03.991Z,1016.11
2023-04-21T06:43:04.008Z,1016.12
2023-04-21T06:44:03.984Z,1016.09
2023-04-21T06:45:03.892Z,1016.10
2023-04-21T06:46:03.864Z,1016.05
2023-04-21T06:47:03.869Z,1016.05
2023-04-21T06:48:03.852Z,1016.06
2023-04-21T06:49:03.766Z,1016.07
2023-04-21T06:50:03.789Z,1016.09
2023-04-21T06:51:03.700Z,1016.03
2023-04-21T06:52:03.672Z,1015.95
2023-04-21T06:53:03.637Z,1016.03
2023-04-21T06:54:03.847Z,1016.04
2023-04-21T06:55:03.609Z,1016.00
2023-04-21T06:56:03.533Z,1016.00
2023-04-21T06:57:03.503Z,1016.03
2023-04-21T06:58:03.482Z,1015.97
2023-04-21T06:59:03.444Z,1015.97
2023-04-21T07:00:03.405Z,1016.00
2023-04-21T07:01:03.479Z,1016.00
2023-04-21T07:02:03.382Z,1016.01
2023-04-21T07:03:03.377Z,1015.98
2023-04-21T07:04:03.386Z,1015.96
2023-04-21T07:05:03.255Z,1015.98
2023-04-21T07:06:03.273Z,1015.92
2023-04-21T07:07:03.454Z,1015.97
2023-04-21T07:08:03.147Z,1015.95
2023-04-21T07:09:03.145Z,1016.01
2023-04-21T07:10:03.088Z,1016.00
2023-04-21T07:11:03.076Z,1016.01
2023-04-21T07:12:03.111Z,1015.95
2023-04-21T07:13:03.084Z,1015.93
2023-04-21T07:14:02.967Z,1015.96
2023-04-21T07:15:02.940Z,1015.98
2023-04-21T07:16:02.909Z,1016.02
2023-04-21T07:17:02.922Z,1015.95
2023-04-21T07:18:02.919Z,1015.95
2023-04-21T07:19:02.803Z,1015.98
2023-04-21T07:20:02.788Z,1015.96
2023-04-21T07:21:02.741Z,1015.93
2023-04-21T07:22:02.705Z,1016.01
2023-04-21T07:23:02.695Z,1015.95
2023-04-21T07:24:02.702Z,1015.98
2023-04-21T07:25:02.621Z,1015.96
2023-04-21T07:26:02.584Z,1015.99
2023-04-21T07:27:02.555Z,1015.99
2023-04-21T07:28:02.521Z,1015.95
2023-04-21T07:29:02.479Z,1015.99
2023-04-21T07:30:02.517Z,1016.00
2023-04-21T07:31:03.792Z,1016.02
2023-04-21T07:32:02.402Z,1015.98
2023-04-21T07:33:02.447Z,1016.00
2023-04-21T07:34:02.328Z,1015.98
2023-04-21T07:35:02.311Z,1016.04
2023-04-21T07:36:02.277Z,1016.02
2023-04-21T07:37:05.551Z,1016.00
2023-04-21T07:38:02.207Z,1015.98
2023-04-21T07:39:02.171Z,1016.03
2023-04-21T07:40:02.152Z,1015.96
2023-04-21T07:41:02.149Z,1016.02
2023-04-21T07:42:02.130Z,1016.00
2023-04-21T07:43:02.052Z,1016.01
2023-04-21T07:44:02.016Z,1015.97
2023-04-21T07:45:02.006Z,1015.97
2023-04-21T07:46:01.983Z,1015.98
2023-04-21T07:47:01.976Z,1015.92
2023-04-21T07:48:01.945Z,1015.94
2023-04-21T07:49:03.902Z,1015.96
2023-04-21T07:50:01.834Z,1015.90
2023-04-21T07:51:01.812Z,1015.90
2023-04-21T07:52:01.770Z,1015.90
2023-04-21T07:53:01.810Z,1015.88
2023-04-21T07:54:01.701Z,1015.89
2023-04-21T07:55:01.668Z,1015.89
2023-04-21T07:56:01.633Z,1015.92
2023-04-21T07:57:01.611Z,1015.87
2023-04-21T07:58:01.632Z,1015.89
2023-04-21T07:59:01.552Z,1015.88
2023-04-21T08:00:01.516Z,1015.88
2023-04-21T08:01:01.492Z,1015.89
2023-04-21T08:02:01.524Z,1015.86
2023-04-21T08:03:01.592Z,1015.85
2023-04-21T08:04:01.545Z,1015.89
2023-04-21T08:05:01.512Z,1015.87
2023-04-21T08:06:01.595Z,1015.87
2023-04-21T08:07:01.911Z,1015.85
2023-04-21T08:08:01.323Z,1015.84
2023-04-21T08:09:01.232Z,1015.87
2023-04-21T08:10:01.199Z,1015.84
2023-04-21T08:11:01.284Z,1015.86
2023-04-21T08:12:01.135Z,1015.90
2023-04-21T08:13:01.166Z,1015.89
2023-04-21T08:14:01.072Z,1015.88
2023-04-21T08:15:01.103Z,1015.91
2023-04-21T08:16:01.054Z,1015.86
2023-04-21T08:17:01.001Z,1015.85
2023-04-21T08:18:01.047Z,1015.87
2023-04-21T08:19:00.942Z,1015.86
2023-04-21T08:20:00.904Z,1015.82
2023-04-21T08:21:00.880Z,1015.88
2023-04-21T08:22:00.853Z,1015.82
2023-04-21T08:23:00.872Z,1015.83
2023-04-21T08:24:00.841Z,1015.86
2023-04-21T08:25:00.789Z,1015.82
2023-04-21T08:26:00.726Z,1015.86
2023-04-21T08:27:00.700Z,1015.81
2023-04-21T08:28:00.649Z,1015.82
2023-04-21T08:29:02.711Z,1015.81
2023-04-21T08:30:00.656Z,1015.83
2023-04-21T08:31:00.624Z,1015.83
2023-04-21T08:32:00.589Z,1015.75
2023-04-21T08:33:00.601Z,1015.80
2023-04-21T08:34:02.846Z,1015.83
2023-04-21T08:35:00.475Z,1015.84
2023-04-21T08:36:07.437Z,1015.85
2023-04-21T08:37:00.372Z,1015.82
2023-04-21T08:38:00.368Z,1015.82
2023-04-21T08:39:00.329Z,1015.75
2023-04-21T08:40:00.313Z,1015.76
2023-04-21T08:41:00.305Z,1015.78
2023-04-21T08:42:00.330Z,1015.72
2023-04-21T08:43:00.199Z,1015.74
2023-04-21T08:44:00.168Z,1015.69
2023-04-21T08:45:00.224Z,1015.72
2023-04-21T08:46:00.202Z,1015.72
2023-04-21T08:47:00.099Z,1015.72
2023-04-21T08:48:00.328Z,1015.68
2023-04-21T08:49:00.017Z,1015.70
2023-04-21T08:49:59.996Z,1015.72
2023-04-21T08:50:59.969Z,1015.72
2023-04-21T08:51:59.929Z,1015.72
2023-04-21T08:52:59.920Z,1015.67
2023-04-21T08:53:59.923Z,1015.67
2023-04-21T08:54:59.845Z,1015.71
2023-04-21T08:56:10.770Z,1015.71
2023-04-21T08:57:11.740Z,1015.73
2023-04-21T08:57:59.809Z,1015.70
2023-04-21T08:58:59.721Z,1015.70
2023-04-21T08:59:59.768Z,1015.64
2023-04-21T09:00:59.690Z,1015.61
2023-04-21T09:01:59.645Z,1015.65
2023-04-21T09:03:01.819Z,1015.67
2023-04-21T09:03:59.654Z,1015.65
2023-04-21T09:04:59.984Z,1015.60
2023-04-21T09:05:59.843Z,1015.70
2023-04-21T09:06:59.491Z,1015.72
2023-04-21T09:07:59.467Z,1015.68
2023-04-21T09:08:59.429Z,1015.66
2023-04-21T09:09:59.402Z,1015.70
2023-04-21T09:10:59.377Z,1015.70
2023-04-21T09:11:59.426Z,1015.62
2023-04-21T09:12:59.324Z,1015.67
2023-04-21T09:13:59.288Z,1015.73
2023-04-21T09:14:59.280Z,1015.67
2023-04-21T09:15:59.254Z,1015.66
2023-04-21T09:16:59.411Z,1015.63
2023-04-21T09:17:59.256Z,1015.64
2023-04-21T09:18:59.136Z,1015.65
2023-04-21T09:19:59.146Z,1015.65
2023-04-21T09:20:59.089Z,1015.67
2023-04-21T09:21:59.054Z,1015.63
2023-04-21T09:22:59.018Z,1015.62
2023-04-21T09:23:59.046Z,1015.64
2023-04-21T09:24:58.964Z,1015.62
2023-04-21T09:25:58.928Z,1015.61
2023-04-21T09:26:58.910Z,1015.64
2023-04-21T09:27:58.881Z,1015.63
2023-04-21T09:28:58.851Z,1015.57
2023-04-21T09:29:58.864Z,1015.58
2023-04-21T09:30:58.818Z,1015.51
2023-04-21T09:31:58.763Z,1015.55
2023-04-21T09:32:58.763Z,1015.62
2023-04-21T09:34:00.789Z,1015.60
2023-04-21T09:34:58.726Z,1015.57
2023-04-21T09:35:58.641Z,1015.63
2023-04-21T09:36:58.612Z,1015.66
2023-04-21T09:37:58.583Z,1015.61
2023-04-21T09:39:12.978Z,1015.66
2023-04-21T09:40:58.560Z,1015.56
2023-04-21T09:41:58.487Z,1015.55
2023-04-21T09:42:58.454Z,1015.57
2023-04-21T09:43:58.413Z,1015.58
2023-04-21T09:45:16.544Z,1015.54
2023-04-21T09:45:58.395Z,1015.54
2023-04-21T09:46:58.404Z,1015.47
2023-04-21T09:47:58.332Z,1015.47
2023-04-21T09:48:58.271Z,1015.45
2023-04-21T09:49:58.545Z,1015.45
2023-04-21T09:52:17.737Z,1015.45
2023-04-21T09:52:58.164Z,1015.42
2023-04-21T09:53:58.122Z,1015.52
2023-04-21T09:54:58.086Z,1015.43
2023-04-21T09:55:58.061Z,1015.47
2023-04-21T09:56:58.030Z,1015.51
2023-04-21T09:57:58.062Z,1015.47
2023-04-21T09:58:57.997Z,1015.39
2023-04-21T09:59:57.943Z,1015.38
2023-04-21T10:00:57.924Z,1015.36
2023-04-21T10:01:57.976Z,1015.37
2023-04-21T10:02:58.034Z,1015.39
2023-04-21T10:03:58.174Z,1015.45
2023-04-21T10:04:58.073Z,1015.36
2023-04-21T10:05:57.893Z,1015.37
2023-04-21T10:06:57.748Z,1015.39
2023-04-21T10:07:57.720Z,1015.38
2023-04-21T10:08:57.684Z,1015.40
2023-04-21T10:09:57.713Z,1015.38
2023-04-21T10:10:57.638Z,1015.36
2023-04-21T10:11:57.615Z,1015.39
2023-04-21T10:12:57.579Z,1015.32
2023-04-21T10:13:57.547Z,1015.28
2023-04-21T10:14:57.517Z,1015.30
2023-04-21T10:15:57.554Z,1015.26
2023-04-21T10:16:57.480Z,1015.31
2023-04-21T10:17:57.493Z,1015.27
2023-04-21T10:18:57.397Z,1015.36
2023-04-21T10:19:57.453Z,1015.30
2023-04-21T10:20:57.422Z,1015.35
2023-04-21T10:21:57.315Z,1015.24
2023-04-21T10:22:57.300Z,1015.26
2023-04-21T10:23:57.262Z,1015.31
2023-04-21T10:24:57.265Z,1015.36
2023-04-21T10:25:57.250Z,1015.35
2023-04-21T10:26:57.174Z,1015.21
2023-04-21T10:27:57.155Z,1015.24
2023-04-21T10:28:57.131Z,1015.22
2023-04-21T10:29:57.339Z,1015.21
2023-04-21T10:30:57.060Z,1015.29
2023-04-21T10:31:57.130Z,1015.18
2023-04-21T10:32:57.022Z,1015.17
2023-04-21T10:33:57.045Z,1015.22
2023-04-21T10:34:56.950Z,1015.18
2023-04-21T10:35:56.912Z,1015.18
2023-04-21T10:36:56.899Z,1015.17
2023-04-21T10:37:56.863Z,1015.16
2023-04-21T10:38:56.837Z,1015.18
2023-04-21T10:39:56.873Z,1015.13
2023-04-21T10:40:56.776Z,1015.11
2023-04-21T10:41:56.746Z,1015.07
2023-04-21T10:42:56.724Z,1015.04
2023-04-21T10:43:56.695Z,1015.08
2023-04-21T10:44:56.791Z,1015.05
2023-04-21T10:45:56.639Z,1015.03
2023-04-21T10:46:56.643Z,1015.10
2023-04-21T10:47:56.615Z,1014.97
2023-04-21T10:48:56.560Z,1015.03
2023-04-21T10:49:56.577Z,1014.99
2023-04-21T10:50:56.496Z,1014.99
2023-04-21T10:51:56.491Z,1014.92
2023-04-21T10:52:56.451Z,1014.96
2023-04-21T10:53:56.417Z,1014.94
2023-04-21T10:54:56.398Z,1014.94
2023-04-21T10:55:56.425Z,1015.01
2023-04-21T10:56:56.333Z,1014.94
2023-04-21T10:57:56.301Z,1014.88
2023-04-21T10:58:56.279Z,1014.90
2023-04-21T10:59:56.241Z,1014.84
2023-04-21T11:00:56.267Z,1014.87
2023-04-21T11:01:56.296Z,1014.88
2023-04-21T11:02:56.271Z,1014.87
2023-04-21T11:03:56.236Z,1014.87
2023-04-21T11:04:56.698Z,1014.83
2023-04-21T11:05:56.076Z,1014.83
2023-04-21T11:06:56.079Z,1014.78
2023-04-21T11:07:56.079Z,1014.81
2023-04-21T11:08:55.987Z,1014.90
2023-04-21T11:09:55.962Z,1014.78
2023-04-21T11:10:55.973Z,1014.77
2023-04-21T11:11:55.911Z,1014.82
2023-04-21T11:12:55.932Z,1014.78
2023-04-21T11:13:55.860Z,1014.79
2023-04-21T11:14:55.820Z,1014.70
2023-04-21T11:15:55.797Z,1014.72
2023-04-21T11:16:55.833Z,1014.70
2023-04-21T11:17:55.861Z,1014.71
2023-04-21T11:18:55.712Z,1014.62
2023-04-21T11:19:55.685Z,1014.70
2023-04-21T11:20:55.662Z,1014.72
2023-04-21T11:21:55.676Z,1014.66
2023-04-21T11:22:55.597Z,1014.68
2023-04-21T11:23:55.648Z,1014.58
2023-04-21T11:24:55.574Z,1014.75
2023-04-21T11:25:55.513Z,1014.74
2023-04-21T11:26:55.493Z,1014.64
2023-04-21T11:27:55.470Z,1014.59
2023-04-21T11:28:55.425Z,1014.58
2023-04-21T11:29:55.462Z,1014.59
2023-04-21T11:30:55.486Z,1014.56
2023-04-21T11:31:55.353Z,1014.47
2023-04-21T11:32:55.352Z,1014.43
2023-04-21T11:33:55.291Z,1014.47
2023-04-21T11:34:55.289Z,1014.56
2023-04-21T11:35:55.314Z,1014.56
2023-04-21T11:36:55.207Z,1014.61
2023-04-21T11:37:55.183Z,1014.55
2023-04-21T11:38:55.145Z,1014.49
2023-04-21T11:39:55.124Z,1014.56
2023-04-21T11:40:55.139Z,1014.54
2023-04-21T11:41:55.082Z,1014.56
2023-04-21T11:42:55.045Z,1014.51
2023-04-21T11:43:55.016Z,1014.55
2023-04-21T11:44:55.000Z,1014.47
2023-04-21T11:45:54.969Z,1014.45
2023-04-21T11:46:54.985Z,1014.47
2023-04-21T11:47:54.942Z,1014.47
2023-04-21T11:48:54.878Z,1014.58
2023-04-21T11:49:54.860Z,1014.55
2023-04-21T11:50:54.817Z,1014.49
2023-04-21T11:51:54.813Z,1014.48
2023-04-21T11:52:54.828Z,1014.45
2023-04-21T11:53:54.736Z,1014.42
2023-04-21T11:54:54.706Z,1014.40
2023-04-21T11:55:54.934Z,1014.44
2023-04-21T11:56:54.676Z,1014.30
2023-04-21T11:57:54.638Z,1014.41
2023-04-21T11:58:54.656Z,1014.47
2023-04-21T11:59:54.573Z,1014.25
2023-04-21T12:00:54.750Z,1014.40
2023-04-21T12:01:54.515Z,1014.43
2023-04-21T12:02:54.553Z,1014.35
2023-04-21T12:03:54.709Z,1014.38
2023-04-21T12:04:54.596Z,1014.37
2023-04-21T12:05:54.435Z,1014.31
2023-04-21T12:06:54.371Z,1014.29